Time;durP1;ratioP1;P1;durP2;ratioP2;P2;SDS_P1;SDS_P2;PMS_P1;PMS_P2;Temp;Humidity;BMP_temperature;BMP_pressure;BME280_temperature;BME280_humidity;BME280_pressure;Samples;Min_cycle;Max_cycle;Signal;HPM_P1;HPM_P2
2022/09/22 00:00:11;;;;;;;4.88;3.40;;;;;;;;;;5036037;28;94232;-62
2022/09/22 00:02:38;;;;;;;4.82;3.50;;;;;;;;;;5028704;28;92429;-62
2022/09/22 00:05:04;;;;;;;5.90;3.03;;;;;;;;;;5025035;28;94200;-62
2022/09/22 00:07:30;;;;;;;4.13;3.25;;;;;;;;;;5023636;27;92520;-62
2022/09/22 00:09:57;;;;;;;4.10;3.30;;;;;;;;;;5032722;28;94107;-62
2022/09/22 00:12:23;;;;;;;2.95;2.75;;;;;;;;;;5035197;27;92515;-62
2022/09/22 00:14:50;;;;;;;3.58;2.90;;;;;;;;;;5036094;27;92498;-62
2022/09/22 00:17:16;;;;;;;6.88;2.72;;;;;;;;;;5033579;28;93807;-62
2022/09/22 00:19:43;;;;;;;3.03;2.83;;;;;;;;;;5013445;28;96577;-62
2022/09/22 00:22:09;;;;;;;3.53;3.22;;;;;;;;;;5015116;28;92405;-62
2022/09/22 00:24:35;;;;;;;7.53;2.70;;;;;;;;;;5032144;28;93963;-62
2022/09/22 00:27:02;;;;;;;2.95;2.55;;;;;;;;;;5034504;28;92835;-62
2022/09/22 00:29:29;;;;;;;2.70;2.50;;;;;;;;;;5035534;27;93781;-62
2022/09/22 00:31:56;;;;;;;3.15;2.83;;;;;;;;;;5034828;28;94305;-62
2022/09/22 00:34:24;;;;;;;2.63;2.42;;;;;;;;;;5035673;28;92426;-62
2022/09/22 00:36:50;;;;;;;4.53;2.50;;;;;;;;;;5036166;28;93077;-62
2022/09/22 00:39:17;;;;;;;4.80;2.90;;;;;;;;;;5034243;28;93314;-62
2022/09/22 00:41:46;;;;;;;3.33;2.47;;;;;;;;;;5034599;27;92505;-62
2022/09/22 00:44:30;;;;;;;2.65;2.47;;;;;;;;;;5033607;28;94940;-62
2022/09/22 00:47:11;;;;;;;3.22;2.40;;;;;;;;;;5037153;28;93236;-62
2022/09/22 00:49:49;;;;;;;2.88;2.60;;;;;;;;;;5015050;28;93238;-62
2022/09/22 00:52:19;;;;;;;2.78;2.55;;;;;;;;;;5015238;28;93367;-62
2022/09/22 00:54:46;;;;;;;2.60;2.40;;;;;;;;;;5014808;28;92577;-62
2022/09/22 00:57:14;;;;;;;2.63;2.42;;;;;;;;;;5015042;28;92969;-62
2022/09/22 00:59:42;;;;;;;3.75;2.65;;;;;;;;;;5015209;28;93312;-62
2022/09/22 01:02:09;;;;;;;2.80;2.60;;;;;;;;;;5014642;28;91737;-62
2022/09/22 01:04:35;;;;;;;2.50;2.38;;;;;;;;;;5015237;28;92371;-62
2022/09/22 01:07:02;;;;;;;2.67;2.47;;;;;;;;;;5016564;28;93402;-62
2022/09/22 01:09:31;;;;;;;4.95;2.67;;;;;;;;;;5013993;28;94711;-62
2022/09/22 01:11:59;;;;;;;4.72;2.67;;;;;;;;;;5014849;28;93405;-62
2022/09/22 01:14:45;;;;;;;4.90;2.38;;;;;;;;;;5015147;28;92943;-62
2022/09/22 01:17:18;;;;;;;9.50;2.22;;;;;;;;;;5014537;28;94067;-62
2022/09/22 01:19:50;;;;;;;2.85;2.65;;;;;;;;;;5014611;28;93104;-62
2022/09/22 01:22:23;;;;;;;2.90;2.70;;;;;;;;;;5014066;28;92304;-62
2022/09/22 01:24:55;;;;;;;2.60;2.40;;;;;;;;;;5014815;28;93771;-62
2022/09/22 01:27:36;;;;;;;2.85;2.33;;;;;;;;;;5015301;28;92485;-62
2022/09/22 01:30:06;;;;;;;3.83;2.40;;;;;;;;;;5016959;28;92436;-62
2022/09/22 01:32:41;;;;;;;5.00;2.33;;;;;;;;;;5027571;28;94198;-62
2022/09/22 01:35:25;;;;;;;2.60;2.40;;;;;;;;;;5022641;28;95257;-62
2022/09/22 01:38:12;;;;;;;5.25;2.40;;;;;;;;;;5014853;28;95485;-62
2022/09/22 01:40:47;;;;;;;2.40;2.10;;;;;;;;;;5016270;28;93416;-62
2022/09/22 01:43:22;;;;;;;2.40;2.25;;;;;;;;;;5017240;28;92352;-61
2022/09/22 01:45:49;;;;;;;3.20;2.50;;;;;;;;;;5018169;28;93028;-62
2022/09/22 01:48:16;;;;;;;2.33;2.20;;;;;;;;;;5017795;28;93211;-62
2022/09/22 01:50:44;;;;;;;3.33;2.17;;;;;;;;;;5017363;28;92950;-62
2022/09/22 01:53:12;;;;;;;3.15;2.60;;;;;;;;;;5021414;28;93150;-62
2022/09/22 01:55:41;;;;;;;2.47;2.03;;;;;;;;;;5018728;28;92605;-62
2022/09/22 01:58:23;;;;;;;1.95;1.85;;;;;;;;;;5016447;28;93238;-62
2022/09/22 02:01:27;;;;;;;2.57;2.37;;;;;;;;;;5016210;28;95777;-62
2022/09/22 02:04:15;;;;;;;2.35;2.15;;;;;;;;;;4974566;28;92830;-62
2022/09/22 02:06:44;;;;;;;3.35;2.63;;;;;;;;;;4962004;28;92988;-62
2022/09/22 02:09:11;;;;;;;2.70;2.50;;;;;;;;;;4981533;28;93252;-62
2022/09/22 02:11:37;;;;;;;2.35;2.22;;;;;;;;;;4997246;28;92986;-62
2022/09/22 02:14:04;;;;;;;1.98;1.88;;;;;;;;;;4997841;28;92912;-62
2022/09/22 02:16:30;;;;;;;2.45;2.05;;;;;;;;;;5000635;28;93422;-62
2022/09/22 02:19:10;;;;;;;4.13;1.80;;;;;;;;;;5016377;28;93211;-62
2022/09/22 02:21:40;;;;;;;2.70;1.97;;;;;;;;;;5016966;28;93988;-62
2022/09/22 02:24:24;;;;;;;2.50;2.10;;;;;;;;;;5034543;28;92467;-62
2022/09/22 02:26:50;;;;;;;4.25;2.50;;;;;;;;;;5036536;27;94719;-62
2022/09/22 02:29:17;;;;;;;2.13;2.00;;;;;;;;;;5037242;28;93073;-62
2022/09/22 02:31:44;;;;;;;3.85;2.10;;;;;;;;;;5036582;27;92449;-62
2022/09/22 02:34:11;;;;;;;2.00;1.90;;;;;;;;;;5037391;28;94065;-62
2022/09/22 02:36:56;;;;;;;3.22;1.95;;;;;;;;;;5037134;28;93301;-62
2022/09/22 02:39:33;;;;;;;2.42;2.22;;;;;;;;;;5039146;28;92614;-61
2022/09/22 02:41:59;;;;;;;2.10;1.90;;;;;;;;;;5036859;28;93374;-62
2022/09/22 02:44:42;;;;;;;6.30;2.22;;;;;;;;;;5038040;28;91678;-61
2022/09/22 02:47:11;;;;;;;2.22;2.08;;;;;;;;;;5031748;28;92613;-62
2022/09/22 02:49:37;;;;;;;2.25;1.80;;;;;;;;;;5016704;28;93524;-61
2022/09/22 02:52:07;;;;;;;2.15;1.95;;;;;;;;;;5014983;28;94835;-62
2022/09/22 02:54:34;;;;;;;3.38;1.77;;;;;;;;;;5016096;28;95517;-62
2022/09/22 02:57:00;;;;;;;3.47;1.85;;;;;;;;;;5020671;28;93340;-61
2022/09/22 02:59:26;;;;;;;1.95;1.85;;;;;;;;;;5016599;28;92545;-62
2022/09/22 03:01:54;;;;;;;2.10;1.98;;;;;;;;;;5019822;28;94158;-62
2022/09/22 03:04:20;;;;;;;4.05;2.03;;;;;;;;;;5016752;28;92430;-62
2022/09/22 03:06:47;;;;;;;2.15;2.05;;;;;;;;;;5016084;28;92874;-62
2022/09/22 03:09:16;;;;;;;2.92;1.65;;;;;;;;;;5017036;28;91602;-61
2022/09/22 03:11:43;;;;;;;1.80;1.70;;;;;;;;;;5017039;28;92600;-61
2022/09/22 03:14:09;;;;;;;1.83;1.73;;;;;;;;;;5016490;28;94117;-62
2022/09/22 03:16:35;;;;;;;1.92;1.83;;;;;;;;;;5015066;28;96712;-61
2022/09/22 03:19:01;;;;;;;2.97;1.80;;;;;;;;;;5016428;28;92487;-61
2022/09/22 03:21:28;;;;;;;2.30;2.10;;;;;;;;;;5018856;28;93907;-62
2022/09/22 03:23:54;;;;;;;2.63;1.98;;;;;;;;;;5016450;28;92509;-62
2022/09/22 03:26:21;;;;;;;2.17;1.98;;;;;;;;;;5015447;28;94606;-61
2022/09/22 03:28:47;;;;;;;2.17;1.98;;;;;;;;;;5015834;28;93245;-61
2022/09/22 03:31:13;;;;;;;2.35;1.80;;;;;;;;;;5017033;28;92566;-61
2022/09/22 03:33:40;;;;;;;1.90;1.80;;;;;;;;;;5016976;28;93282;-61
2022/09/22 03:36:06;;;;;;;2.20;2.00;;;;;;;;;;5014019;28;93165;-62
2022/09/22 03:38:33;;;;;;;1.80;1.70;;;;;;;;;;5016279;28;92354;-61
2022/09/22 03:41:00;;;;;;;2.40;2.20;;;;;;;;;;5014610;28;94838;-61
2022/09/22 03:43:26;;;;;;;1.92;1.70;;;;;;;;;;5018615;28;93405;-62
2022/09/22 03:45:59;;;;;;;3.65;1.88;;;;;;;;;;5016245;28;93906;-61
2022/09/22 03:48:27;;;;;;;2.25;2.00;;;;;;;;;;5027778;28;93198;-62
2022/09/22 03:50:54;;;;;;;5.70;1.90;;;;;;;;;;5035581;27;92629;-61
2022/09/22 03:53:21;;;;;;;1.55;1.45;;;;;;;;;;5036208;28;94250;-61
2022/09/22 03:55:47;;;;;;;1.77;1.38;;;;;;;;;;5035339;27;93019;-61
2022/09/22 03:58:14;;;;;;;2.53;1.85;;;;;;;;;;5022794;27;91729;-61
2022/09/22 04:00:40;;;;;;;2.33;1.88;;;;;;;;;;5016407;28;92382;-61
2022/09/22 04:03:07;;;;;;;2.78;1.70;;;;;;;;;;5014303;28;94375;-61
2022/09/22 04:05:34;;;;;;;2.00;1.90;;;;;;;;;;5017975;28;94901;-61
2022/09/22 04:08:00;;;;;;;2.95;1.90;;;;;;;;;;5015673;28;94079;-61
2022/09/22 04:10:26;;;;;;;1.60;1.50;;;;;;;;;;5015321;28;92400;-61
2022/09/22 04:12:52;;;;;;;1.90;1.80;;;;;;;;;;5016132;28;93791;-61
2022/09/22 04:15:19;;;;;;;1.80;1.70;;;;;;;;;;5015211;28;94051;-62
2022/09/22 04:17:45;;;;;;;2.22;2.03;;;;;;;;;;5014173;28;92479;-61
2022/09/22 04:20:12;;;;;;;4.32;1.80;;;;;;;;;;5015645;28;92898;-61
2022/09/22 04:22:38;;;;;;;2.13;1.92;;;;;;;;;;5016812;28;92703;-61
2022/09/22 04:25:05;;;;;;;2.00;1.90;;;;;;;;;;5014561;28;92657;-61
2022/09/22 04:27:31;;;;;;;2.38;2.20;;;;;;;;;;5018489;28;92564;-62
2022/09/22 04:29:59;;;;;;;2.30;2.10;;;;;;;;;;5014119;28;94793;-61
2022/09/22 04:32:25;;;;;;;2.60;2.00;;;;;;;;;;5014770;28;96322;-61
2022/09/22 04:34:52;;;;;;;1.88;1.75;;;;;;;;;;5015341;28;94057;-61
2022/09/22 04:37:18;;;;;;;2.70;2.03;;;;;;;;;;5015327;28;92427;-61
2022/09/22 04:39:44;;;;;;;5.65;2.13;;;;;;;;;;5029402;28;93834;-61
2022/09/22 04:42:11;;;;;;;1.77;1.67;;;;;;;;;;5035055;27;92313;-61
2022/09/22 04:44:37;;;;;;;2.10;2.00;;;;;;;;;;5035702;28;92461;-61
2022/09/22 04:47:03;;;;;;;2.40;2.20;;;;;;;;;;5017177;28;93940;-61
2022/09/22 04:49:30;;;;;;;2.05;1.92;;;;;;;;;;5018079;28;94201;-61
2022/09/22 04:51:56;;;;;;;2.67;2.47;;;;;;;;;;5015470;28;93881;-61
2022/09/22 04:54:22;;;;;;;3.30;1.75;;;;;;;;;;5012964;28;96680;-61
2022/09/22 04:56:48;;;;;;;2.35;2.15;;;;;;;;;;5028234;28;92620;-61
2022/09/22 04:59:15;;;;;;;3.80;2.13;;;;;;;;;;5013335;28;92838;-61
2022/09/22 05:01:41;;;;;;;3.00;2.13;;;;;;;;;;5014922;28;93269;-61
2022/09/22 05:04:08;;;;;;;3.53;2.45;;;;;;;;;;5015017;28;93015;-61
2022/09/22 05:06:35;;;;;;;2.17;1.95;;;;;;;;;;5014524;28;92856;-61
2022/09/22 05:09:02;;;;;;;2.58;2.10;;;;;;;;;;5014708;28;93430;-61
2022/09/22 05:11:29;;;;;;;2.45;2.25;;;;;;;;;;5018500;28;91713;-61
2022/09/22 05:13:57;;;;;;;2.72;2.53;;;;;;;;;;5013663;28;94279;-61
2022/09/22 05:16:23;;;;;;;4.75;2.13;;;;;;;;;;5014711;28;92484;-61
2022/09/22 05:18:50;;;;;;;2.40;2.20;;;;;;;;;;5013440;28;94751;-61
2022/09/22 05:21:17;;;;;;;2.35;2.15;;;;;;;;;;5013464;28;94020;-61
2022/09/22 05:23:44;;;;;;;2.10;2.00;;;;;;;;;;5015109;28;92449;-61
2022/09/22 05:26:10;;;;;;;2.53;2.42;;;;;;;;;;5014456;28;93905;-61
2022/09/22 05:28:37;;;;;;;2.10;1.90;;;;;;;;;;5013838;28;94411;-61
2022/09/22 05:31:03;;;;;;;2.35;2.17;;;;;;;;;;5017808;28;92371;-61
2022/09/22 05:33:29;;;;;;;4.35;2.00;;;;;;;;;;5014623;28;93884;-62
2022/09/22 05:35:56;;;;;;;2.42;2.30;;;;;;;;;;5014297;28;91677;-61
2022/09/22 05:38:22;;;;;;;2.63;2.42;;;;;;;;;;5014941;28;93273;-61
2022/09/22 05:40:48;;;;;;;2.25;2.05;;;;;;;;;;5014483;28;93286;-61
2022/09/22 05:43:15;;;;;;;2.33;2.22;;;;;;;;;;5011754;28;94996;-61
2022/09/22 05:45:42;;;;;;;5.25;2.40;;;;;;;;;;5014012;28;95371;-61
2022/09/22 05:48:09;;;;;;;3.10;2.28;;;;;;;;;;5031732;28;93340;-61
2022/09/22 05:50:35;;;;;;;3.10;2.13;;;;;;;;;;5033636;28;92974;-61
2022/09/22 05:53:03;;;;;;;2.92;2.35;;;;;;;;;;5037447;28;92781;-61
2022/09/22 05:55:29;;;;;;;2.92;2.17;;;;;;;;;;5033747;28;92454;-61
2022/09/22 05:57:56;;;;;;;2.45;2.20;;;;;;;;;;5023233;28;92963;-61
2022/09/22 06:00:22;;;;;;;2.42;2.22;;;;;;;;;;5014638;28;92303;-61
2022/09/22 06:02:48;;;;;;;2.33;2.20;;;;;;;;;;5013356;28;92432;-61
2022/09/22 06:05:15;;;;;;;2.72;2.53;;;;;;;;;;5014237;28;94044;-61
2022/09/22 06:07:45;;;;;;;3.58;2.40;;;;;;;;;;5011178;28;95481;-61
2022/09/22 06:10:11;;;;;;;4.47;2.45;;;;;;;;;;4999821;28;93412;-62
2022/09/22 06:12:38;;;;;;;5.78;2.60;;;;;;;;;;5007437;28;93119;-61
2022/09/22 06:15:05;;;;;;;2.50;2.30;;;;;;;;;;5008863;28;93323;-61
2022/09/22 06:17:31;;;;;;;12.45;2.50;;;;;;;;;;5012772;28;93843;-61
2022/09/22 06:19:59;;;;;;;4.55;2.30;;;;;;;;;;4999691;28;94392;-61
2022/09/22 06:22:26;;;;;;;4.18;2.90;;;;;;;;;;4996196;28;92561;-70
2022/09/22 06:24:52;;;;;;;3.05;2.70;;;;;;;;;;5010417;28;93868;-61
2022/09/22 06:27:18;;;;;;;4.90;2.80;;;;;;;;;;5028027;28;93508;-62
2022/09/22 06:29:45;;;;;;;4.93;2.38;;;;;;;;;;5016127;28;92479;-62
2022/09/22 06:32:11;;;;;;;2.72;2.25;;;;;;;;;;5012121;28;95472;-62
2022/09/22 06:34:37;;;;;;;2.55;2.42;;;;;;;;;;5015701;28;94109;-62
2022/09/22 06:37:07;;;;;;;4.53;2.47;;;;;;;;;;5012093;28;94164;-62
2022/09/22 06:39:36;;;;;;;4.57;2.30;;;;;;;;;;4997030;28;93155;-62
2022/09/22 06:42:03;;;;;;;2.60;2.30;;;;;;;;;;4996577;28;92464;-62
2022/09/22 06:44:31;;;;;;;2.95;2.20;;;;;;;;;;5026471;27;94198;-60
2022/09/22 06:46:58;;;;;;;2.33;2.22;;;;;;;;;;5026627;28;94066;-62
2022/09/22 06:49:25;;;;;;;3.35;2.55;;;;;;;;;;5037592;27;91594;-60
2022/09/22 06:51:51;;;;;;;4.75;2.63;;;;;;;;;;5019418;28;93312;-60
2022/09/22 06:54:17;;;;;;;3.22;2.55;;;;;;;;;;5018364;28;93142;-61
2022/09/22 06:56:46;;;;;;;2.97;2.30;;;;;;;;;;5035147;27;94832;-60
2022/09/22 06:59:13;;;;;;;2.20;2.10;;;;;;;;;;5038051;28;95385;-60
2022/09/22 07:01:40;;;;;;;2.75;2.55;;;;;;;;;;5018917;27;92466;-60
2022/09/22 07:04:06;;;;;;;2.45;2.17;;;;;;;;;;5014890;28;92899;-60
2022/09/22 07:06:34;;;;;;;2.75;2.25;;;;;;;;;;5016188;28;93625;-60
2022/09/22 07:09:00;;;;;;;3.47;2.60;;;;;;;;;;5016645;28;92365;-60
2022/09/22 07:11:27;;;;;;;2.53;2.33;;;;;;;;;;5017255;28;92974;-60
2022/09/22 07:13:53;;;;;;;4.53;2.40;;;;;;;;;;5016406;28;92441;-60
2022/09/22 07:16:21;;;;;;;5.53;2.63;;;;;;;;;;5016656;28;92417;-63
2022/09/22 07:18:51;;;;;;;3.25;2.40;;;;;;;;;;5019630;28;93006;-61
2022/09/22 07:21:20;;;;;;;2.88;2.30;;;;;;;;;;5014076;28;95191;-60
2022/09/22 07:23:48;;;;;;;5.40;2.33;;;;;;;;;;5016445;28;95311;-61
2022/09/22 07:26:16;;;;;;;2.42;2.22;;;;;;;;;;5016613;28;93378;-58
2022/09/22 07:28:44;;;;;;;6.88;4.40;;;;;;;;;;5016435;28;92530;-60
2022/09/22 07:31:11;;;;;;;5.20;3.22;;;;;;;;;;5005785;28;93391;-61
2022/09/22 07:33:39;;;;;;;4.32;3.28;;;;;;;;;;5003978;28;93150;-60
2022/09/22 07:36:12;;;;;;;3.20;2.88;;;;;;;;;;4995207;28;93035;-60
2022/09/22 07:38:42;;;;;;;8.77;3.15;;;;;;;;;;4996240;28;92958;-59
2022/09/22 07:41:12;;;;;;;4.68;3.30;;;;;;;;;;4998454;28;94059;-60
2022/09/22 07:43:40;;;;;;;6.22;2.83;;;;;;;;;;4996516;28;94004;-60
2022/09/22 07:46:06;;;;;;;2.88;2.67;;;;;;;;;;4994198;28;96636;-59
2022/09/22 07:51:08;;;;;;;7.55;2.80;;;;;;;;;;4996043;28;94236;-60
2022/09/22 07:53:41;;;;;;;5.57;2.60;;;;;;;;;;4996182;28;94468;-60
2022/09/22 07:56:12;;;;;;;4.10;2.90;;;;;;;;;;4995310;28;92396;-60
2022/09/22 07:58:40;;;;;;;6.80;2.70;;;;;;;;;;4995862;28;92919;-60
2022/09/22 08:01:07;;;;;;;3.05;2.83;;;;;;;;;;5005280;28;94105;-60
2022/09/22 08:03:36;;;;;;;2.83;2.63;;;;;;;;;;5018772;28;91702;-60
2022/09/22 08:06:09;;;;;;;3.20;2.60;;;;;;;;;;5015491;28;94159;-60
2022/09/22 08:08:55;;;;;;;4.05;3.10;;;;;;;;;;5016102;28;92348;-60
2022/09/22 08:11:25;;;;;;;3.20;2.90;;;;;;;;;;5014587;28;94716;-60
2022/09/22 08:13:56;;;;;;;2.80;2.60;;;;;;;;;;5015836;28;93106;-62
2022/09/22 08:16:24;;;;;;;3.38;2.65;;;;;;;;;;5015363;28;92491;-60
2022/09/22 08:18:58;;;;;;;3.10;2.90;;;;;;;;;;5011853;28;93934;-60
2022/09/22 08:21:25;;;;;;;2.70;2.50;;;;;;;;;;5006655;28;94461;-60
2022/09/22 08:23:52;;;;;;;2.85;2.60;;;;;;;;;;5001293;28;92465;-60
2022/09/22 08:26:18;;;;;;;2.97;2.78;;;;;;;;;;5019934;28;93186;-60
2022/09/22 08:28:46;;;;;;;2.88;2.53;;;;;;;;;;4996427;28;91728;-60
2022/09/22 08:31:13;;;;;;;5.97;2.60;;;;;;;;;;4999231;28;93729;-61
2022/09/22 08:33:41;;;;;;;6.15;3.00;;;;;;;;;;5012552;27;93203;-61
2022/09/22 08:36:08;;;;;;;2.80;2.53;;;;;;;;;;5002346;28;94865;-61
2022/09/22 08:38:34;;;;;;;2.83;2.60;;;;;;;;;;4996805;28;95359;-61
2022/09/22 08:41:01;;;;;;;4.07;2.80;;;;;;;;;;4995125;28;94083;-61
2022/09/22 08:43:30;;;;;;;3.05;2.22;;;;;;;;;;4995346;28;92438;-61
2022/09/22 08:45:56;;;;;;;2.67;2.50;;;;;;;;;;5011057;28;93859;-61
2022/09/22 08:53:59;;;;;;;2.45;2.28;;;;;;;;;;5013847;28;93357;-61
2022/09/22 08:56:31;;;;;;;2.55;2.35;;;;;;;;;;5004558;28;92521;-61
2022/09/22 08:59:09;;;;;;;2.65;2.45;;;;;;;;;;5008261;28;93033;-61
2022/09/22 09:01:54;;;;;;;3.03;2.60;;;;;;;;;;5013232;28;95742;-61
2022/09/22 09:04:42;;;;;;;2.97;2.65;;;;;;;;;;5014766;28;92394;-61
2022/09/22 09:07:14;;;;;;;2.60;2.50;;;;;;;;;;5013825;28;92794;-61
2022/09/22 09:09:59;;;;;;;2.92;2.72;;;;;;;;;;5011815;28;93547;-61
2022/09/22 09:12:31;;;;;;;2.85;2.65;;;;;;;;;;5011057;28;94080;-61
2022/09/22 09:14:58;;;;;;;2.67;2.50;;;;;;;;;;5014655;28;93209;-61
2022/09/22 09:17:27;;;;;;;3.30;2.80;;;;;;;;;;5015097;28;92353;-61
2022/09/22 09:20:00;;;;;;;3.88;2.80;;;;;;;;;;5014529;28;93176;-61
2022/09/22 09:22:39;;;;;;;3.03;2.75;;;;;;;;;;5014723;28;93250;-61
2022/09/22 09:25:16;;;;;;;2.80;2.60;;;;;;;;;;5013727;28;92426;-61
2022/09/22 09:27:55;;;;;;;4.35;3.20;;;;;;;;;;5000206;28;94801;-61
2022/09/22 09:30:22;;;;;;;2.63;2.47;;;;;;;;;;5012526;28;95211;-61
2022/09/22 09:32:55;;;;;;;4.80;2.75;;;;;;;;;;5017843;28;92542;-61
2022/09/22 09:35:25;;;;;;;5.50;3.25;;;;;;;;;;5011727;28;93365;-64
2022/09/22 09:37:53;;;;;;;4.03;3.55;;;;;;;;;;5006349;28;94756;-65
2022/09/22 09:40:20;;;;;;;9.25;4.63;;;;;;;;;;5010853;28;92461;-62
2022/09/22 09:43:05;;;;;;;10.07;4.22;;;;;;;;;;5014300;28;92541;-62
2022/09/22 09:45:52;;;;;;;5.43;4.28;;;;;;;;;;5015251;28;91730;-62
2022/09/22 09:48:23;;;;;;;5.00;4.13;;;;;;;;;;5005699;28;94072;-62
2022/09/22 09:50:49;;;;;;;7.13;4.45;;;;;;;;;;4993254;28;93916;-61
2022/09/22 09:53:29;;;;;;;6.60;4.15;;;;;;;;;;4992592;28;94814;-63
2022/09/22 09:55:56;;;;;;;4.45;4.13;;;;;;;;;;4996386;28;95358;-61
2022/09/22 10:01:11;;;;;;;5.72;4.05;;;;;;;;;;4999978;28;93175;-62
2022/09/22 10:03:53;;;;;;;5.80;3.97;;;;;;;;;;5004257;28;93253;-61
2022/09/22 10:06:24;;;;;;;8.50;3.70;;;;;;;;;;5013672;28;92506;-61
2022/09/22 10:08:50;;;;;;;7.75;4.10;;;;;;;;;;5012654;28;93910;-61
2022/09/22 10:11:28;;;;;;;7.30;3.42;;;;;;;;;;5013874;28;91933;-61
2022/09/22 10:13:55;;;;;;;8.57;4.05;;;;;;;;;;4997339;28;92571;-61
2022/09/22 10:16:21;;;;;;;4.85;3.10;;;;;;;;;;4996962;28;93081;-61
2022/09/22 10:18:49;;;;;;;3.83;3.35;;;;;;;;;;4998384;28;96805;-62
2022/09/22 10:21:17;;;;;;;3.70;3.40;;;;;;;;;;5006755;28;95508;-61
2022/09/22 10:23:46;;;;;;;4.15;3.33;;;;;;;;;;4997347;28;93617;-61
2022/09/22 10:26:15;;;;;;;4.43;3.30;;;;;;;;;;4997270;28;92639;-61
2022/09/22 10:28:41;;;;;;;4.28;3.33;;;;;;;;;;5014211;28;94044;-61
2022/09/22 10:31:18;;;;;;;4.10;3.20;;;;;;;;;;5016205;28;93480;-61
2022/09/22 10:33:52;;;;;;;3.42;2.90;;;;;;;;;;5016370;28;92476;-61
2022/09/22 10:36:18;;;;;;;3.10;2.80;;;;;;;;;;5003248;28;93064;-61
2022/09/22 10:38:45;;;;;;;3.60;3.28;;;;;;;;;;4996231;28;93243;-61
2022/09/22 10:41:25;;;;;;;5.20;3.15;;;;;;;;;;5000157;28;92454;-61
2022/09/22 10:43:54;;;;;;;3.40;3.10;;;;;;;;;;4993665;28;97043;-61
2022/09/22 10:46:40;;;;;;;5.53;2.88;;;;;;;;;;5003321;28;92621;-61
2022/09/22 10:49:11;;;;;;;2.60;2.40;;;;;;;;;;4996710;28;92540;-62
2022/09/22 10:51:43;;;;;;;2.92;2.72;;;;;;;;;;4996505;28;92945;-61
2022/09/22 10:54:17;;;;;;;2.70;2.47;;;;;;;;;;4997381;28;92386;-62
2022/09/22 10:56:52;;;;;;;5.05;2.50;;;;;;;;;;5007054;28;92456;-61
2022/09/22 10:59:21;;;;;;;3.55;2.28;;;;;;;;;;5016001;28;93252;-61
2022/09/22 11:02:03;;;;;;;2.83;2.60;;;;;;;;;;5017755;28;91680;-61
2022/09/22 11:04:52;;;;;;;3.30;2.53;;;;;;;;;;5020130;28;92477;-61
2022/09/22 11:13:29;;;;;;;5.07;2.40;;;;;;;;;;5014727;28;94826;-61
2022/09/22 11:16:12;;;;;;;2.63;2.38;;;;;;;;;;5016911;28;92429;-61
2022/09/22 11:18:41;;;;;;;3.13;2.22;;;;;;;;;;5017001;28;92747;-61
2022/09/22 11:21:14;;;;;;;2.25;1.98;;;;;;;;;;5009104;28;93362;-61
2022/09/22 11:23:43;;;;;;;4.03;2.40;;;;;;;;;;4997186;28;93164;-62
2022/09/22 11:26:23;;;;;;;3.13;2.70;;;;;;;;;;4995462;28;92884;-61
2022/09/22 11:29:07;;;;;;;2.20;2.00;;;;;;;;;;5000068;28;92898;-61
2022/09/22 11:31:53;;;;;;;2.30;2.10;;;;;;;;;;4996576;28;93331;-61
2022/09/22 11:34:38;;;;;;;2.08;1.75;;;;;;;;;;4995721;28;92608;-61
2022/09/22 11:37:25;;;;;;;2.17;1.80;;;;;;;;;;4994440;28;94851;-62
2022/09/22 11:40:10;;;;;;;4.25;1.88;;;;;;;;;;4996583;28;95617;-61
2022/09/22 11:42:48;;;;;;;2.40;1.95;;;;;;;;;;4996680;28;93221;-61
2022/09/22 11:45:27;;;;;;;2.78;1.95;;;;;;;;;;4996384;28;92417;-61
2022/09/22 11:48:04;;;;;;;1.95;1.80;;;;;;;;;;4996327;28;92801;-61
2022/09/22 11:50:31;;;;;;;1.92;1.70;;;;;;;;;;4999978;28;93424;-61
2022/09/22 11:53:19;;;;;;;1.63;1.52;;;;;;;;;;4996260;28;92978;-61
2022/09/22 11:56:01;;;;;;;2.55;1.70;;;;;;;;;;4996003;28;93605;-61
2022/09/22 11:58:30;;;;;;;2.10;1.88;;;;;;;;;;4997236;28;93828;-62
2022/09/22 12:01:07;;;;;;;1.95;1.80;;;;;;;;;;5013994;28;92983;-61
2022/09/22 12:03:41;;;;;;;1.73;1.60;;;;;;;;;;5014235;28;95822;-61
2022/09/22 12:06:09;;;;;;;1.48;1.38;;;;;;;;;;5016115;28;92665;-62
2022/09/22 12:08:45;;;;;;;5.10;1.65;;;;;;;;;;5005506;28;92762;-64
2022/09/22 12:11:13;;;;;;;3.95;1.42;;;;;;;;;;5005610;28;93036;-62
2022/09/22 12:13:45;;;;;;;2.17;1.42;;;;;;;;;;5017664;28;92438;-62
2022/09/22 12:16:11;;;;;;;3.03;1.80;;;;;;;;;;5014618;28;93212;-62
2022/09/22 12:18:41;;;;;;;1.80;1.60;;;;;;;;;;4998848;28;92540;-65
2022/09/22 12:21:17;;;;;;;1.70;1.60;;;;;;;;;;5000349;28;93960;-64
2022/09/22 12:23:47;;;;;;;1.50;1.40;;;;;;;;;;5008726;28;92423;-64
2022/09/22 12:26:32;;;;;;;1.70;1.52;;;;;;;;;;5005733;28;92509;-63
2022/09/22 12:29:00;;;;;;;1.60;1.50;;;;;;;;;;5011361;28;94787;-62
2022/09/22 12:31:33;;;;;;;1.30;1.30;;;;;;;;;;5014929;28;93515;-61
2022/09/22 12:34:01;;;;;;;1.60;1.50;;;;;;;;;;5015242;28;92431;-62
2022/09/22 12:36:27;;;;;;;1.50;1.40;;;;;;;;;;5000220;28;93194;-62
2022/09/22 12:39:12;;;;;;;1.40;1.20;;;;;;;;;;5014959;28;92412;-62
2022/09/22 12:41:58;;;;;;;1.52;1.27;;;;;;;;;;5015553;28;93008;-62
2022/09/22 12:44:27;;;;;;;2.35;1.60;;;;;;;;;;5012970;28;93360;-60
2022/09/22 12:46:57;;;;;;;2.90;2.10;;;;;;;;;;5015995;28;92215;-60
2022/09/22 12:49:23;;;;;;;2.53;2.20;;;;;;;;;;4997628;28;93139;-62
2022/09/22 12:51:50;;;;;;;2.90;2.03;;;;;;;;;;4994345;28;92402;-70
2022/09/22 12:54:23;;;;;;;5.90;1.77;;;;;;;;;;4993800;28;94923;-61
2022/09/22 12:56:56;;;;;;;4.40;2.10;;;;;;;;;;4998352;28;95282;-61
2022/09/22 12:59:35;;;;;;;2.10;1.90;;;;;;;;;;4996849;28;93362;-62
2022/09/22 13:02:10;;;;;;;2.15;1.95;;;;;;;;;;4994652;28;92427;-62
2022/09/22 13:04:38;;;;;;;7.50;2.53;;;;;;;;;;4994034;28;92977;-61
2022/09/22 13:07:23;;;;;;;3.78;2.40;;;;;;;;;;4996625;28;92470;-62
2022/09/22 13:10:10;;;;;;;3.08;2.22;;;;;;;;;;5015087;28;94040;-67
2022/09/22 13:12:36;;;;;;;6.25;5.70;;;;;;;;;;4998460;28;92444;-61
2022/09/22 13:15:05;;;;;;;11.15;3.58;;;;;;;;;;4995026;28;92462;-65
2022/09/22 13:17:37;;;;;;;13.98;4.40;;;;;;;;;;5007626;28;93016;-64
2022/09/22 13:20:14;;;;;;;22.75;4.72;;;;;;;;;;5008001;27;95776;-61
2022/09/22 13:22:40;;;;;;;13.90;3.85;;;;;;;;;;5018235;28;92542;-61
2022/09/22 13:25:33;;;;;;;11.23;2.88;;;;;;;;;;5012813;28;93048;-61
2022/09/22 13:28:03;;;;;;;3.72;2.80;;;;;;;;;;5010850;28;92491;-62
2022/09/22 13:30:31;;;;;;;5.95;2.90;;;;;;;;;;4994345;28;94156;-62
2022/09/22 13:32:58;;;;;;;7.85;3.50;;;;;;;;;;4997231;28;93597;-63
2022/09/22 13:35:29;;;;;;;12.73;2.95;;;;;;;;;;4994176;28;92696;-61
2022/09/22 13:37:56;;;;;;;6.57;2.97;;;;;;;;;;4995333;28;93157;-61
2022/09/22 13:40:24;;;;;;;5.18;2.58;;;;;;;;;;4993702;28;93324;-61
2022/09/22 13:42:53;;;;;;;4.90;2.30;;;;;;;;;;4994570;28;92517;-61
2022/09/22 13:45:22;;;;;;;3.33;2.63;;;;;;;;;;4996860;28;94826;-61
2022/09/22 13:47:50;;;;;;;3.35;2.13;;;;;;;;;;5007898;28;92508;-61
2022/09/22 13:50:20;;;;;;;5.43;2.30;;;;;;;;;;5014587;28;93126;-61
2022/09/22 13:52:48;;;;;;;5.30;2.33;;;;;;;;;;5014913;28;93387;-61
2022/09/22 13:55:18;;;;;;;3.20;1.92;;;;;;;;;;5009673;28;92411;-61
2022/09/22 13:57:44;;;;;;;2.20;2.05;;;;;;;;;;5014577;28;93045;-61
2022/09/22 14:00:32;;;;;;;2.65;1.90;;;;;;;;;;5014080;28;93079;-61
2022/09/22 14:03:18;;;;;;;2.03;1.90;;;;;;;;;;5013361;28;91701;-61
2022/09/22 14:05:46;;;;;;;2.00;1.90;;;;;;;;;;5004578;28;92433;-61
2022/09/22 14:08:22;;;;;;;4.13;1.88;;;;;;;;;;4993912;28;92607;-61
2022/09/22 14:10:48;;;;;;;1.92;1.70;;;;;;;;;;4992527;28;94968;-61
2022/09/22 14:13:33;;;;;;;3.58;1.92;;;;;;;;;;4993696;28;93292;-62
2022/09/22 14:16:05;;;;;;;2.53;1.80;;;;;;;;;;4993193;28;92387;-64
2022/09/22 14:18:35;;;;;;;2.00;1.87;;;;;;;;;;4994672;28;93868;-63
2022/09/22 14:21:07;;;;;;;2.00;1.88;;;;;;;;;;5006606;28;95310;-61
2022/09/22 14:23:33;;;;;;;1.90;1.80;;;;;;;;;;5009763;28;92679;-64
2022/09/22 14:26:02;;;;;;;2.17;1.40;;;;;;;;;;5003965;28;92884;-62
2022/09/22 14:28:32;;;;;;;4.30;1.75;;;;;;;;;;4995746;28;92403;-62
2022/09/22 14:30:58;;;;;;;1.60;1.50;;;;;;;;;;5002273;28;93464;-62
2022/09/22 14:33:29;;;;;;;2.15;1.95;;;;;;;;;;4999264;28;94306;-62
2022/09/22 14:36:04;;;;;;;1.67;1.45;;;;;;;;;;5008920;28;95449;-62
2022/09/22 14:38:38;;;;;;;1.58;1.55;;;;;;;;;;5002969;28;95629;-62
2022/09/22 14:41:20;;;;;;;1.42;1.27;;;;;;;;;;5011954;28;93501;-62
2022/09/22 14:43:46;;;;;;;1.13;1.13;;;;;;;;;;5018712;28;92443;-62
2022/09/22 14:46:20;;;;;;;2.17;1.58;;;;;;;;;;5011708;28;94201;-62
2022/09/22 14:48:47;;;;;;;2.08;1.40;;;;;;;;;;5011225;28;92449;-62
2022/09/22 14:51:14;;;;;;;2.80;1.80;;;;;;;;;;5009013;28;94364;-62
2022/09/22 14:53:41;;;;;;;2.35;1.48;;;;;;;;;;5003316;28;93406;-62
2022/09/22 14:56:12;;;;;;;1.75;1.65;;;;;;;;;;5004403;28;94005;-62
2022/09/22 14:58:40;;;;;;;3.38;1.50;;;;;;;;;;5005411;28;93310;-62
2022/09/22 15:04:09;;;;;;;4.10;1.60;;;;;;;;;;4995956;28;92456;-62
2022/09/22 15:06:38;;;;;;;1.38;1.38;;;;;;;;;;5000487;28;93302;-62
2022/09/22 15:09:05;;;;;;;3.13;1.40;;;;;;;;;;5000537;28;93196;-62
2022/09/22 15:11:44;;;;;;;1.42;1.33;;;;;;;;;;4999014;28;92777;-62
2022/09/22 15:14:26;;;;;;;6.00;1.85;;;;;;;;;;4999474;28;93285;-62
2022/09/22 15:18:11;;;;;;;1.55;1.35;;;;;;;;;;5002039;28;92523;-62
2022/09/22 15:19:38;;;;;;;1.40;1.30;;;;;;;;;;5004865;28;93082;-62
2022/09/22 15:22:06;;;;;;;1.90;1.60;;;;;;;;;;5004436;28;95333;-62